createdAt,value
2023-04-12T00:00:22.974Z,1.00
2023-04-12T00:03:28.695Z,0.25
2023-04-12T00:06:34.069Z,1.00
2023-04-12T00:09:38.074Z,1.00
2023-04-12T00:12:42.129Z,1.00
2023-04-12T00:15:46.580Z,0.50
2023-04-12T00:18:51.683Z,0.75
2023-04-12T00:21:56.967Z,0.00
2023-04-12T00:25:00.758Z,3.00
2023-04-12T00:28:05.086Z,0.25
2023-04-12T00:31:09.958Z,0.00
2023-04-12T00:34:13.933Z,1.00
2023-04-12T00:37:18.971Z,1.00
2023-04-12T00:40:22.766Z,2.50
2023-04-12T00:43:27.930Z,4.00
2023-04-12T00:46:31.556Z,5.50
2023-04-12T00:49:35.815Z,3.00
2023-04-12T00:52:41.734Z,4.00
2023-04-12T00:55:47.246Z,2.00
2023-04-12T00:58:51.165Z,3.00
2023-04-12T01:01:55.339Z,4.50
2023-04-12T01:04:58.850Z,4.50
2023-04-12T01:08:15.220Z,5.50
2023-04-12T01:11:27.994Z,3.75
2023-04-12T01:14:44.875Z,6.00
2023-04-12T01:17:58.418Z,3.00
2023-04-12T01:21:09.069Z,4.00
2023-04-12T01:24:29.234Z,3.00
2023-04-12T01:27:43.759Z,5.00
2023-04-12T01:30:52.681Z,4.50
2023-04-12T01:34:01.382Z,4.00
2023-04-12T01:37:06.397Z,1.00
2023-04-12T01:40:11.435Z,3.50
2023-04-12T01:43:16.794Z,3.75
2023-04-12T01:46:24.263Z,2.50
2023-04-12T01:49:37.634Z,3.00
2023-04-12T01:52:54.138Z,1.00
2023-04-12T01:56:01.415Z,4.50
2023-04-12T01:59:09.333Z,3.00
2023-04-12T02:02:14.466Z,3.00
2023-04-12T02:05:18.696Z,3.50
2023-04-12T02:08:22.899Z,1.50
2023-04-12T02:11:26.555Z,1.00
2023-04-12T02:14:31.945Z,2.00
2023-04-12T02:17:36.361Z,4.50
2023-04-12T02:20:41.087Z,3.50
2023-04-12T02:23:45.237Z,3.00
2023-04-12T02:26:49.916Z,5.50
2023-04-12T02:29:55.140Z,4.00
2023-04-12T02:32:58.854Z,3.00
2023-04-12T02:36:11.416Z,3.00
2023-04-12T02:39:19.013Z,3.00
2023-04-12T02:42:24.977Z,4.00
2023-04-12T02:45:30.165Z,6.00
2023-04-12T02:48:34.415Z,1.00
2023-04-12T02:51:38.603Z,3.00
2023-04-12T02:54:42.757Z,4.00
2023-04-12T02:57:52.331Z,1.00
2023-04-12T03:01:00.480Z,1.00
2023-04-12T03:04:09.683Z,1.50
2023-04-12T03:07:22.531Z,3.75
2023-04-12T03:10:27.889Z,6.00
2023-04-12T03:13:37.958Z,4.50
2023-04-12T03:16:44.313Z,3.25
2023-04-12T03:19:52.608Z,3.00
2023-04-12T03:22:57.678Z,1.00
2023-04-12T03:26:01.358Z,3.75
2023-04-12T03:29:11.271Z,4.00
2023-04-12T03:32:18.340Z,3.00
2023-04-12T03:35:22.979Z,4.00
2023-04-12T03:38:28.042Z,2.00
2023-04-12T03:41:32.375Z,3.00
2023-04-12T03:44:39.171Z,4.00
2023-04-12T03:47:48.752Z,5.50
2023-04-12T03:50:54.789Z,3.00
2023-04-12T03:54:00.170Z,4.75
2023-04-12T03:57:04.244Z,3.00
2023-04-12T04:00:27.988Z,6.00
2023-04-12T04:03:43.952Z,4.00
2023-04-12T04:07:01.354Z,3.00
2023-04-12T04:10:09.185Z,5.50
2023-04-12T04:13:16.824Z,1.00
2023-04-12T04:16:20.545Z,4.00
2023-04-12T04:19:27.264Z,3.50
2023-04-12T04:22:32.696Z,4.00
2023-04-12T04:25:39.574Z,5.00
2023-04-12T04:28:46.413Z,3.25
2023-04-12T04:31:54.079Z,4.50
2023-04-12T04:35:00.854Z,7.00
2023-04-12T04:38:15.963Z,6.00
2023-04-12T04:41:22.967Z,6.75
2023-04-12T04:44:32.085Z,4.00
2023-04-12T04:47:36.843Z,0.00
2023-04-12T04:50:41.922Z,3.25
2023-04-12T04:53:46.024Z,3.00
2023-04-12T04:56:51.236Z,2.50
2023-04-12T04:59:56.153Z,4.00
2023-04-12T05:03:00.907Z,3.00
2023-04-12T05:06:07.744Z,3.50
2023-04-12T05:09:14.605Z,5.50
2023-04-12T05:12:24.416Z,4.00
2023-04-12T05:15:32.619Z,6.25
2023-04-12T05:18:37.212Z,3.75
2023-04-12T05:21:42.246Z,10.00
2023-04-12T05:24:46.121Z,3.50
2023-04-12T05:27:51.912Z,16.00
2023-04-12T05:30:56.750Z,12.50
2023-04-12T05:34:07.322Z,20.00
2023-04-12T05:37:18.070Z,12.00
2023-04-12T05:40:21.557Z,7.00
2023-04-12T05:43:28.269Z,9.00
2023-04-12T05:46:34.083Z,9.75
2023-04-12T05:49:38.155Z,4.00
2023-04-12T05:52:46.341Z,3.00
2023-04-12T05:55:50.149Z,3.00
2023-04-12T05:58:55.071Z,0.75
2023-04-12T06:01:59.305Z,3.50
2023-04-12T06:05:04.318Z,3.00
2023-04-12T06:08:10.509Z,3.75
2023-04-12T06:11:14.056Z,2.00
2023-04-12T06:14:19.069Z,4.00
2023-04-12T06:17:23.547Z,1.00
2023-04-12T06:20:27.047Z,0.00
2023-04-12T06:23:32.554Z,4.00
2023-04-12T06:26:39.801Z,2.50
2023-04-12T06:29:44.491Z,4.00
2023-04-12T06:32:48.752Z,4.00
2023-04-12T06:35:52.610Z,3.75
2023-04-12T06:38:57.656Z,6.00
2023-04-12T06:42:01.945Z,4.00
2023-04-12T06:45:06.250Z,2.00
2023-04-12T06:48:09.791Z,3.25
2023-04-12T06:51:13.454Z,3.00
2023-04-12T06:54:18.632Z,4.50
2023-04-12T06:57:22.491Z,3.75
2023-04-12T07:00:26.568Z,6.00
2023-04-12T07:03:33.369Z,5.50
2023-04-12T07:06:36.838Z,6.25
2023-04-12T07:09:41.834Z,3.75
2023-04-12T07:12:45.359Z,5.50
2023-04-12T07:15:50.672Z,7.25
2023-04-12T07:18:54.262Z,7.00
2023-04-12T07:21:57.841Z,6.50
2023-04-12T07:25:02.760Z,10.50
2023-04-12T07:28:08.701Z,8.00
2023-04-12T07:31:12.589Z,8.00
2023-04-12T07:34:16.233Z,9.00
2023-04-12T07:37:20.514Z,11.00
2023-04-12T07:40:25.947Z,6.75
2023-04-12T07:43:29.741Z,9.00
2023-04-12T07:46:33.226Z,7.00
2023-04-12T07:49:36.749Z,6.25
2023-04-12T07:52:40.468Z,9.00
2023-04-12T07:55:45.552Z,7.00
2023-04-12T07:58:49.403Z,8.50
2023-04-12T08:01:53.124Z,9.00
2023-04-12T08:04:56.618Z,10.00
2023-04-12T08:08:00.382Z,6.25
2023-04-12T08:11:06.778Z,7.00
2023-04-12T08:14:10.693Z,10.00
2023-04-12T08:17:14.059Z,10.50
2023-04-12T08:20:17.805Z,8.00
2023-04-12T08:23:21.656Z,7.50
2023-04-12T08:26:29.944Z,8.00
2023-04-12T08:29:34.950Z,11.00
2023-04-12T08:32:39.219Z,9.75
2023-04-12T08:35:51.331Z,11.00
2023-04-12T08:38:56.186Z,15.00
2023-04-12T08:42:02.276Z,2.50
2023-04-12T08:45:07.404Z,6.75
2023-04-12T08:48:11.347Z,3.00
2023-04-12T08:51:16.002Z,7.00
2023-04-12T08:54:19.635Z,2.50
2023-04-12T08:57:24.667Z,6.00
2023-04-12T09:00:28.903Z,4.00
2023-04-12T09:03:33.596Z,1.00
2023-04-12T09:06:37.614Z,2.00
2023-04-12T09:09:45.551Z,3.00
2023-04-12T09:12:52.307Z,3.00
2023-04-12T09:15:56.430Z,3.25
2023-04-12T09:19:02.639Z,1.00
2023-04-12T09:22:06.373Z,3.50
2023-04-12T09:25:10.166Z,3.25
2023-04-12T09:28:23.336Z,3.00
2023-04-12T09:31:26.943Z,3.00
2023-04-12T09:34:30.898Z,1.00
2023-04-12T09:37:34.416Z,3.50
2023-04-12T09:40:39.083Z,2.00
2023-04-12T09:43:44.214Z,1.00
2023-04-12T09:46:53.269Z,3.00
2023-04-12T09:49:57.001Z,3.00
2023-04-12T09:53:01.716Z,1.50
2023-04-12T09:56:06.146Z,1.00
2023-04-12T09:59:12.576Z,3.00
2023-04-12T10:02:18.114Z,1.00
2023-04-12T10:05:26.945Z,1.00
2023-04-12T10:08:32.942Z,0.00
2023-04-12T10:11:36.774Z,0.00
2023-04-12T10:14:43.642Z,0.67
2023-04-12T10:17:49.153Z,0.00
2023-04-12T10:20:52.920Z,0.00
2023-04-12T10:23:57.742Z,0.25
2023-04-12T10:27:03.511Z,0.00
2023-04-12T10:30:24.922Z,3.00
2023-04-12T10:33:29.521Z,0.00
2023-04-12T10:36:55.137Z,1.00
2023-04-12T10:39:58.655Z,1.50
2023-04-12T10:43:27.973Z,1.50
2023-04-12T10:46:51.777Z,4.00
2023-04-12T10:50:25.369Z,2.50
2023-04-12T10:53:33.426Z,4.00
2023-04-12T10:56:43.375Z,7.25
2023-04-12T10:59:59.728Z,1.00
2023-04-12T11:03:12.941Z,1.00
2023-04-12T11:06:27.204Z,3.00
2023-04-12T11:10:15.247Z,1.00
2023-04-12T11:13:19.082Z,1.00
2023-04-12T11:16:22.791Z,1.00
2023-04-12T11:19:27.826Z,0.33
2023-04-12T11:22:33.005Z,0.75
2023-04-12T11:25:39.089Z,1.00
2023-04-12T11:28:43.188Z,4.00
2023-04-12T11:31:46.781Z,0.50
2023-04-12T11:34:52.099Z,0.00
2023-04-12T11:37:57.621Z,1.00
2023-04-12T11:41:02.716Z,0.33
2023-04-12T11:44:07.187Z,0.50
2023-04-12T11:47:23.551Z,7.00
2023-04-12T11:50:42.169Z,1.67
2023-04-12T11:53:53.522Z,0.00
2023-04-12T11:56:58.699Z,0.33
2023-04-12T12:00:07.220Z,0.67
2023-04-12T12:03:19.323Z,0.67
2023-04-12T12:06:26.478Z,1.00
2023-04-12T12:09:31.364Z,0.00
2023-04-12T12:12:35.886Z,0.33
2023-04-12T12:15:40.328Z,1.00
2023-04-12T12:18:45.743Z,1.00
2023-04-12T12:21:50.781Z,0.00
2023-04-12T12:24:57.894Z,1.00
2023-04-12T12:28:05.517Z,3.00
2023-04-12T12:31:13.927Z,1.00
2023-04-12T12:34:19.875Z,0.00
2023-04-12T12:37:27.079Z,0.00
2023-04-12T12:40:33.019Z,1.00
2023-04-12T12:43:36.483Z,1.00
2023-04-12T12:46:53.630Z,1.00
2023-04-12T12:50:00.589Z,0.67
2023-04-12T12:53:07.128Z,0.67
2023-04-12T12:56:11.510Z,1.00
2023-04-12T12:59:15.045Z,0.00
2023-04-12T13:02:20.085Z,1.33
2023-04-12T13:05:23.942Z,1.00
2023-04-12T13:08:29.269Z,1.00
2023-04-12T13:11:33.013Z,1.00
2023-04-12T13:14:36.736Z,0.00
2023-04-12T13:17:40.568Z,0.67
2023-04-12T13:20:44.385Z,1.00
2023-04-12T13:23:54.796Z,1.00
2023-04-12T13:26:59.395Z,0.00
2023-04-12T13:30:06.013Z,1.00
2023-04-12T13:33:14.892Z,0.67
2023-04-12T13:36:20.790Z,1.00
2023-04-12T13:39:26.100Z,1.00
2023-04-12T13:42:30.378Z,2.00
2023-04-12T13:45:34.893Z,1.00
2023-04-12T13:48:38.439Z,1.00
2023-04-12T13:51:43.531Z,2.00
2023-04-12T13:54:48.962Z,1.00
2023-04-12T13:57:52.459Z,0.00
2023-04-12T14:00:56.900Z,1.00
2023-04-12T14:04:00.638Z,2.00
2023-04-12T14:07:04.126Z,2.00
2023-04-12T14:10:11.662Z,4.00
2023-04-12T14:13:15.599Z,2.00
2023-04-12T14:16:19.242Z,1.67
2023-04-12T14:19:22.739Z,1.00
2023-04-12T14:22:26.513Z,2.00
2023-04-12T14:25:31.473Z,2.67
2023-04-12T14:28:35.623Z,2.00
2023-04-12T14:31:39.771Z,2.00
2023-04-12T14:34:44.541Z,2.00
2023-04-12T14:37:48.259Z,1.33
2023-04-12T14:40:54.581Z,2.00
2023-04-12T14:43:58.387Z,2.00
2023-04-12T14:47:03.501Z,2.00
2023-04-12T14:50:08.589Z,2.00
2023-04-12T14:53:14.128Z,2.00
2023-04-12T14:56:29.756Z,2.00
2023-04-12T14:59:34.739Z,2.00
2023-04-12T15:02:41.371Z,2.00
2023-04-12T15:05:45.932Z,2.67
2023-04-12T15:08:49.778Z,2.00
2023-04-12T15:12:01.042Z,2.00
2023-04-12T15:15:06.420Z,2.67
2023-04-12T15:18:10.620Z,3.33
2023-04-12T15:21:14.941Z,4.33
2023-04-12T15:24:18.447Z,5.00
2023-04-12T15:27:23.528Z,5.00
2023-04-12T15:30:26.880Z,4.00
2023-04-12T15:33:34.430Z,25.33
2023-04-12T15:36:38.456Z,2.00
2023-04-12T15:39:42.533Z,4.00
2023-04-12T15:42:47.672Z,8.00
2023-04-12T15:45:53.566Z,8.00
2023-04-12T15:48:58.053Z,13.67
2023-04-12T15:52:01.920Z,4.00
2023-04-12T15:55:07.647Z,4.33
2023-04-12T15:58:13.795Z,2.00
2023-04-12T16:01:17.613Z,4.33
2023-04-12T16:04:21.178Z,2.00
2023-04-12T16:07:25.762Z,5.33
2023-04-12T16:10:30.455Z,4.00
2023-04-12T16:13:35.599Z,4.00
2023-04-12T16:16:40.645Z,4.33
2023-04-12T16:19:44.197Z,1.33
2023-04-12T16:22:48.378Z,4.33
2023-04-12T16:25:51.758Z,2.00
2023-04-12T16:28:59.360Z,4.00
2023-04-12T16:32:03.400Z,4.00
2023-04-12T16:35:08.230Z,2.00
2023-04-12T16:38:12.261Z,4.00
2023-04-12T16:41:17.409Z,4.00
2023-04-12T16:44:22.234Z,4.00
2023-04-12T16:47:26.164Z,4.00
2023-04-12T16:50:29.665Z,2.00
2023-04-12T16:53:33.098Z,3.00
2023-04-12T16:56:38.719Z,2.00
2023-04-12T16:59:43.686Z,2.00
2023-04-12T17:02:48.674Z,5.67
2023-04-12T17:05:52.828Z,5.00
2023-04-12T17:08:57.572Z,4.67
2023-04-12T17:12:02.940Z,5.33
2023-04-12T17:15:08.827Z,7.33
2023-04-12T17:18:12.479Z,7.00
2023-04-12T17:21:17.158Z,7.50
2023-04-12T17:24:20.808Z,10.25
2023-04-12T17:27:24.175Z,11.75
2023-04-12T17:30:29.650Z,10.00
2023-04-12T17:33:33.108Z,12.00
2023-04-12T17:36:36.571Z,13.50
2023-04-12T17:39:39.955Z,13.00
2023-04-12T17:42:44.648Z,14.50
2023-04-12T17:45:49.558Z,13.00
2023-04-12T17:48:52.983Z,15.00
2023-04-12T17:51:56.329Z,15.00
2023-04-12T17:54:59.724Z,12.25
2023-04-12T17:58:03.520Z,8.50
2023-04-12T18:01:08.374Z,10.00
2023-04-12T18:04:12.413Z,9.75
2023-04-12T18:07:15.883Z,10.50
2023-04-12T18:10:21.796Z,9.00
2023-04-12T18:13:25.326Z,12.00
2023-04-12T18:16:30.385Z,8.50
2023-04-12T18:19:33.839Z,7.00
2023-04-12T18:22:37.383Z,9.75
2023-04-12T18:25:40.790Z,10.00
2023-04-12T18:28:44.273Z,6.75
2023-04-12T18:31:49.058Z,9.00
2023-04-12T18:34:52.813Z,10.50
2023-04-12T18:37:56.468Z,8.00
2023-04-12T18:41:00.361Z,10.50
2023-04-12T18:44:03.875Z,9.75
2023-04-12T18:47:09.002Z,12.00
2023-04-12T18:50:12.756Z,14.50
2023-04-12T18:53:16.347Z,15.75
2023-04-12T18:56:23.824Z,17.75
2023-04-12T18:59:27.522Z,18.25
2023-04-12T19:02:34.386Z,20.75
2023-04-12T19:05:38.056Z,7.50
2023-04-12T19:08:43.310Z,15.00
2023-04-12T19:11:47.278Z,17.50
2023-04-12T19:14:51.174Z,16.00
2023-04-12T19:17:56.122Z,16.00
2023-04-12T19:20:59.472Z,20.00
2023-04-12T19:24:03.896Z,18.00
2023-04-12T19:27:07.857Z,21.75
2023-04-12T19:30:13.101Z,20.00
2023-04-12T19:33:17.940Z,16.50
2023-04-12T19:36:23.225Z,10.50
2023-04-12T19:39:27.114Z,11.50
2023-04-12T19:42:30.814Z,16.00
2023-04-12T19:45:34.241Z,17.00
2023-04-12T19:48:39.176Z,15.75
2023-04-12T19:51:43.543Z,17.75
2023-04-12T19:54:46.923Z,15.75
2023-04-12T19:57:51.396Z,18.25
2023-04-12T20:00:55.047Z,14.50
2023-04-12T20:03:59.825Z,16.50
2023-04-12T20:07:03.205Z,19.00
2023-04-12T20:10:10.367Z,16.00
2023-04-12T20:13:15.436Z,15.00
2023-04-12T20:16:19.641Z,16.25
2023-04-12T20:19:24.396Z,16.00
2023-04-12T20:22:27.873Z,19.00
2023-04-12T20:25:35.604Z,17.50
2023-04-12T20:28:39.088Z,18.75
2023-04-12T20:31:42.428Z,22.75
2023-04-12T20:34:49.097Z,18.00
2023-04-12T20:37:53.036Z,21.00
2023-04-12T20:40:57.511Z,20.75
2023-04-12T20:44:00.969Z,12.50
2023-04-12T20:47:04.449Z,21.25
2023-04-12T20:50:10.394Z,18.50
2023-04-12T20:53:15.830Z,15.00
2023-04-12T20:56:19.989Z,22.00
2023-04-12T20:59:24.036Z,22.25
2023-04-12T21:02:27.770Z,24.00
2023-04-12T21:05:33.903Z,18.50
2023-04-12T21:08:38.285Z,21.50
2023-04-12T21:11:42.104Z,18.75
2023-04-12T21:14:50.367Z,11.00
2023-04-12T21:17:54.310Z,23.50
2023-04-12T21:21:02.257Z,20.25
2023-04-12T21:24:07.562Z,20.75
2023-04-12T21:27:11.665Z,18.00
2023-04-12T21:30:15.819Z,27.00
2023-04-12T21:33:24.659Z,16.50
2023-04-12T21:36:30.451Z,25.25
2023-04-12T21:39:33.915Z,24.25
2023-04-12T21:42:38.538Z,20.00
2023-04-12T21:45:42.012Z,22.75
2023-04-12T21:48:45.475Z,25.50
2023-04-12T21:51:52.338Z,24.25
2023-04-12T21:54:55.953Z,27.75
2023-04-12T21:57:59.691Z,30.25
2023-04-12T22:01:04.041Z,25.25
2023-04-12T22:04:07.906Z,24.25
2023-04-12T22:07:16.949Z,31.75
2023-04-12T22:10:20.735Z,24.00
2023-04-12T22:13:24.830Z,24.50
2023-04-12T22:16:28.410Z,26.75
2023-04-12T22:19:31.859Z,27.00
2023-04-12T22:22:37.418Z,27.25
2023-04-12T22:25:40.832Z,28.25
2023-04-12T22:28:44.509Z,15.75
2023-04-12T22:31:50.188Z,25.50
2023-04-12T22:35:05.106Z,25.25
2023-04-12T22:38:14.823Z,30.00
2023-04-12T22:41:18.872Z,30.50
2023-04-12T22:44:22.908Z,18.25
2023-04-12T22:47:26.608Z,30.25
2023-04-12T22:50:30.031Z,30.00
2023-04-12T22:53:34.795Z,27.00
2023-04-12T22:56:45.224Z,25.25
2023-04-12T22:59:48.601Z,24.75
2023-04-12T23:02:53.848Z,24.25
2023-04-12T23:05:57.908Z,24.50
2023-04-12T23:09:05.863Z,22.75
2023-04-12T23:12:09.290Z,20.50
2023-04-12T23:15:13.016Z,19.50
2023-04-12T23:18:16.260Z,30.00
2023-04-12T23:21:19.817Z,20.50
2023-04-12T23:24:25.149Z,21.25
2023-04-12T23:27:29.179Z,14.75
2023-04-12T23:30:32.517Z,24.75
2023-04-12T23:33:35.991Z,23.50
2023-04-12T23:36:39.374Z,19.00
2023-04-12T23:39:44.307Z,23.50
2023-04-12T23:42:48.777Z,24.00
2023-04-12T23:45:53.341Z,27.25
2023-04-12T23:48:57.132Z,20.50
2023-04-12T23:52:00.725Z,18.00
2023-04-12T23:55:06.054Z,26.50
2023-04-12T23:58:09.443Z,17.75
